createdAt,value
2023-09-24T00:00:35.632Z,100119.00
2023-09-24T00:03:20.114Z,100117.31
2023-09-24T00:06:08.716Z,100117.63
2023-09-24T00:08:52.777Z,100111.09
2023-09-24T00:11:38.136Z,100118.03
2023-09-24T00:14:22.181Z,100113.72
2023-09-24T00:17:09.980Z,100117.78
2023-09-24T00:19:53.960Z,100111.75
2023-09-24T00:22:38.042Z,100111.75
2023-09-24T00:25:22.780Z,100086.75
2023-09-24T00:28:08.306Z,100105.78
2023-09-24T00:30:53.322Z,100086.84
2023-09-24T00:33:38.789Z,100084.47
2023-09-24T00:36:22.736Z,100084.69
2023-09-24T00:39:07.053Z,100095.75
2023-09-24T00:41:51.812Z,100098.38
2023-09-24T00:44:36.694Z,100100.19
2023-09-24T00:47:21.041Z,100099.81
2023-09-24T00:50:06.897Z,100081.31
2023-09-24T00:52:52.299Z,100099.41
2023-09-24T00:55:37.145Z,100096.72
2023-09-24T00:58:21.138Z,100099.47
2023-09-24T01:01:05.627Z,100082.06
2023-09-24T01:03:51.040Z,100097.72
2023-09-24T01:06:37.310Z,100060.50
2023-09-24T01:09:21.783Z,100080.53
2023-09-24T01:12:06.322Z,100083.84
2023-09-24T01:14:50.813Z,100093.28
2023-09-24T01:17:36.569Z,100096.84
2023-09-24T01:20:22.787Z,100061.66
2023-09-24T01:23:11.012Z,100092.00
2023-09-24T01:25:56.907Z,100077.94
2023-09-24T01:28:41.695Z,100055.34
2023-09-24T01:31:27.992Z,100084.94
2023-09-24T01:34:12.526Z,100088.22
2023-09-24T01:36:56.696Z,100078.47
2023-09-24T01:39:42.160Z,100087.22
2023-09-24T01:42:28.153Z,100086.63
2023-09-24T01:45:12.741Z,100080.56
2023-09-24T01:47:57.314Z,100081.34
2023-09-24T01:50:43.036Z,100072.28
2023-09-24T01:53:26.996Z,100076.41
2023-09-24T01:56:14.317Z,100072.03
2023-09-24T01:58:59.665Z,100086.47
2023-09-24T02:01:46.228Z,100089.53
2023-09-24T02:04:30.241Z,100085.53
2023-09-24T02:07:16.901Z,100095.69
2023-09-24T02:10:01.001Z,100099.03
2023-09-24T02:12:47.004Z,100102.75
2023-09-24T02:15:32.490Z,100095.75
2023-09-24T02:18:19.260Z,100088.06
2023-09-24T02:21:03.872Z,100090.91
2023-09-24T02:23:48.578Z,100104.63
2023-09-24T02:26:33.957Z,100074.94
2023-09-24T02:29:20.315Z,100071.03
2023-09-24T02:32:05.593Z,100093.97
2023-09-24T02:34:49.609Z,100100.34
2023-09-24T02:37:34.108Z,100091.56
2023-09-24T02:40:22.850Z,100106.34
2023-09-24T02:43:07.012Z,100109.13
2023-09-24T02:45:52.482Z,100110.97
2023-09-24T02:48:37.395Z,100100.31
2023-09-24T02:51:21.856Z,100106.03
2023-09-24T02:54:06.725Z,100101.94
2023-09-24T02:56:51.514Z,100079.75
2023-09-24T02:59:36.147Z,100097.97
2023-09-24T03:02:21.696Z,100086.81
2023-09-24T03:05:07.050Z,100090.41
2023-09-24T03:07:54.376Z,100088.03
2023-09-24T03:10:40.112Z,100092.03
2023-09-24T03:13:24.908Z,100090.06
2023-09-24T03:16:08.895Z,100083.81
2023-09-24T03:18:55.064Z,100083.53
2023-09-24T03:21:39.153Z,100091.81
2023-09-24T03:24:23.151Z,100096.50
2023-09-24T03:27:07.176Z,100070.31
2023-09-24T03:29:51.445Z,100106.09
2023-09-24T03:32:35.830Z,100108.78
2023-09-24T03:35:25.443Z,100091.81
2023-09-24T03:38:10.173Z,100118.00
2023-09-24T03:40:54.017Z,100115.78
2023-09-24T03:43:38.357Z,100114.63
2023-09-24T03:46:22.260Z,99991.72
2023-09-24T03:49:06.210Z,100125.63
2023-09-24T03:51:51.482Z,100114.16
2023-09-24T03:54:35.428Z,100123.75
2023-09-24T03:57:19.369Z,100116.53
2023-09-24T04:00:08.195Z,100114.44
2023-09-24T04:02:57.378Z,100122.38
2023-09-24T04:05:41.423Z,100118.06
2023-09-24T04:08:26.845Z,100118.91
2023-09-24T04:11:13.178Z,100125.00
2023-09-24T04:13:57.188Z,100130.53
2023-09-24T04:16:41.015Z,100132.56
2023-09-24T04:19:26.352Z,100126.81
2023-09-24T04:22:10.408Z,100129.38
2023-09-24T04:24:55.996Z,100132.66
2023-09-24T04:27:40.228Z,100136.50
2023-09-24T04:30:25.628Z,100125.66
2023-09-24T04:33:10.151Z,100133.88
2023-09-24T04:35:54.543Z,100134.44
2023-09-24T04:38:38.937Z,100129.50
2023-09-24T04:41:25.616Z,100139.31
2023-09-24T04:44:09.597Z,100144.84
2023-09-24T04:46:55.816Z,100144.75
2023-09-24T04:49:39.625Z,100145.81
2023-09-24T04:52:23.638Z,100146.91
2023-09-24T04:55:08.168Z,100137.75
2023-09-24T04:57:53.496Z,100150.63
2023-09-24T05:00:37.421Z,100154.47
2023-09-24T05:03:21.615Z,100145.59
2023-09-24T05:06:06.389Z,100152.50
2023-09-24T05:08:50.424Z,100146.03
2023-09-24T05:11:34.363Z,100141.91
2023-09-24T05:14:20.286Z,100152.88
2023-09-24T05:17:04.364Z,100153.78
2023-09-24T05:19:48.290Z,100147.44
2023-09-24T05:22:32.259Z,100157.47
2023-09-24T05:25:16.677Z,100161.50
2023-09-24T05:28:00.663Z,100134.94
2023-09-24T05:30:52.866Z,100123.81
2023-09-24T05:33:36.972Z,100150.38
2023-09-24T05:36:23.547Z,100162.38
2023-09-24T05:39:07.570Z,100179.19
2023-09-24T05:41:51.550Z,100168.97
2023-09-24T05:44:35.511Z,100173.72
2023-09-24T05:47:20.900Z,100167.50
2023-09-24T05:50:05.145Z,100187.78
2023-09-24T05:52:49.126Z,100184.78
2023-09-24T05:55:33.025Z,100188.94
2023-09-24T05:58:17.036Z,100183.56
2023-09-24T06:01:01.132Z,100202.78
2023-09-24T06:03:46.788Z,100201.09
2023-09-24T06:06:30.953Z,100194.69
2023-09-24T06:09:17.362Z,100209.31
2023-09-24T06:12:01.527Z,100184.88
2023-09-24T06:14:45.821Z,100215.28
2023-09-24T06:17:30.442Z,100196.72
2023-09-24T06:20:17.284Z,100206.88
2023-09-24T06:23:01.262Z,100200.91
2023-09-24T06:25:45.174Z,100202.97
2023-09-24T06:28:29.334Z,100198.22
2023-09-24T06:31:13.461Z,100126.81
2023-09-24T06:33:57.550Z,100224.88
2023-09-24T06:36:43.048Z,100197.00
2023-09-24T06:39:27.181Z,100215.91
2023-09-24T06:42:11.394Z,100217.28
2023-09-24T06:44:56.415Z,100227.09
2023-09-24T06:47:40.548Z,100224.25
2023-09-24T06:50:25.115Z,100227.25
2023-09-24T06:53:10.484Z,100231.31
2023-09-24T06:55:54.479Z,100232.16
2023-09-24T06:58:38.632Z,100229.13
2023-09-24T07:01:22.923Z,100226.72
2023-09-24T07:04:07.813Z,100229.28
2023-09-24T07:06:53.425Z,100233.84
2023-09-24T07:09:38.794Z,100236.19
2023-09-24T07:12:23.373Z,100242.63
2023-09-24T07:15:08.694Z,100246.00
2023-09-24T07:17:52.698Z,100241.13
2023-09-24T07:20:36.852Z,100249.03
2023-09-24T07:23:21.962Z,100245.47
2023-09-24T07:26:10.101Z,100247.84
2023-09-24T07:28:54.698Z,100240.91
2023-09-24T07:31:38.926Z,100251.16
2023-09-24T07:34:22.762Z,100238.50
2023-09-24T07:37:14.978Z,100238.50
2023-09-24T07:39:59.548Z,100209.88
2023-09-24T07:42:47.958Z,100243.91
2023-09-24T07:45:31.913Z,100245.91
2023-09-24T07:48:16.233Z,100237.75
2023-09-24T07:51:00.226Z,100237.63
2023-09-24T07:53:44.245Z,100240.47
2023-09-24T07:56:28.390Z,100239.22
2023-09-24T07:59:15.152Z,100248.47
2023-09-24T08:01:59.997Z,100237.03
2023-09-24T08:04:44.137Z,100250.50
2023-09-24T08:07:30.573Z,100249.81
2023-09-24T08:10:15.245Z,100146.75
2023-09-24T08:12:59.243Z,100252.94
2023-09-24T08:15:45.097Z,100251.75
2023-09-24T08:18:29.655Z,100243.50
2023-09-24T08:21:13.797Z,100240.41
2023-09-24T08:23:58.704Z,100253.56
2023-09-24T08:26:43.086Z,100251.88
2023-09-24T08:29:27.140Z,100224.53
2023-09-24T08:32:12.507Z,100253.09
2023-09-24T08:34:56.600Z,100250.22
2023-09-24T08:37:40.640Z,100254.50
2023-09-24T08:40:25.965Z,100212.38
2023-09-24T08:43:12.154Z,100247.75
2023-09-24T08:45:56.301Z,100252.78
2023-09-24T08:48:42.578Z,100242.84
2023-09-24T08:51:26.868Z,100251.19
2023-09-24T08:54:11.558Z,100251.41
2023-09-24T08:56:55.485Z,100235.44
2023-09-24T08:59:39.563Z,100242.88
2023-09-24T09:02:24.227Z,100238.34
2023-09-24T09:05:15.138Z,100225.97
2023-09-24T09:08:00.956Z,100235.16
2023-09-24T09:10:46.445Z,100238.81
2023-09-24T09:13:30.465Z,100239.03
2023-09-24T09:16:15.974Z,100225.84
2023-09-24T09:19:03.642Z,100236.22
2023-09-24T09:21:48.943Z,100237.25
2023-09-24T09:24:32.870Z,100206.28
2023-09-24T09:27:16.923Z,100216.47
2023-09-24T09:30:17.902Z,100233.91
2023-09-24T09:33:02.410Z,100238.59
2023-09-24T09:35:46.457Z,100236.41
2023-09-24T09:38:32.228Z,100242.72
2023-09-24T09:41:19.847Z,100234.66
2023-09-24T09:44:07.654Z,100229.56
2023-09-24T09:46:54.182Z,100243.66
2023-09-24T09:49:43.655Z,100236.28
2023-09-24T09:52:35.961Z,100233.78
2023-09-24T09:55:22.396Z,100199.94
2023-09-24T09:58:21.500Z,100229.44
2023-09-24T10:01:08.425Z,100204.00
2023-09-24T10:03:54.583Z,100233.28
2023-09-24T10:06:41.627Z,100233.47
2023-09-24T10:09:36.156Z,100207.66
2023-09-24T10:15:29.986Z,100232.31
2023-09-24T10:18:27.006Z,100229.41
2023-09-24T10:21:11.137Z,100224.19
2023-09-24T10:23:55.150Z,100229.47
2023-09-24T10:26:49.597Z,100194.13
2023-09-24T10:30:07.595Z,100225.88
2023-09-24T10:32:53.163Z,100222.97
2023-09-24T10:35:37.447Z,100222.50
2023-09-24T10:38:21.350Z,100216.56
2023-09-24T10:41:06.592Z,100206.00
2023-09-24T10:44:24.279Z,100212.13
2023-09-24T10:47:26.557Z,100215.50
2023-09-24T10:50:13.832Z,100222.44
2023-09-24T10:53:00.244Z,100221.56
2023-09-24T10:55:51.151Z,100215.94
2023-09-24T10:58:50.737Z,100207.06
2023-09-24T11:01:34.794Z,100209.13
2023-09-24T11:04:27.435Z,100172.72
2023-09-24T11:07:13.802Z,100198.19
2023-09-24T11:09:57.788Z,100216.88
2023-09-24T11:12:50.176Z,100215.19
2023-09-24T11:15:35.407Z,100210.91
2023-09-24T11:18:19.912Z,100205.25
2023-09-24T11:21:05.540Z,100209.19
2023-09-24T11:23:51.149Z,100206.00
2023-09-24T11:26:35.082Z,100213.22
2023-09-24T11:29:18.989Z,100171.41
2023-09-24T11:32:04.009Z,100202.53
2023-09-24T11:34:48.828Z,100208.16
2023-09-24T11:37:46.689Z,100206.31
2023-09-24T11:40:33.510Z,100212.25
2023-09-24T11:43:17.966Z,100203.72
2023-09-24T11:46:02.227Z,100209.19
2023-09-24T11:48:47.271Z,100194.16
2023-09-24T11:51:32.200Z,100204.81
2023-09-24T11:54:16.993Z,100204.34
2023-09-24T11:57:02.429Z,100207.59
2023-09-24T11:59:46.393Z,100194.72
2023-09-24T12:02:30.444Z,100209.66
2023-09-24T12:05:30.603Z,100211.03
2023-09-24T12:08:17.191Z,100219.84
2023-09-24T12:11:01.277Z,100213.31
2023-09-24T12:13:46.898Z,100222.47
2023-09-24T12:16:30.932Z,100217.09
2023-09-24T12:19:14.814Z,100203.84
2023-09-24T12:21:58.689Z,100217.53
2023-09-24T12:24:42.557Z,100129.44
2023-09-24T12:27:30.269Z,100210.03
2023-09-24T12:30:15.778Z,100208.03
2023-09-24T12:32:59.743Z,100224.88
2023-09-24T12:35:44.196Z,100226.25
2023-09-24T12:38:28.240Z,100216.09
2023-09-24T12:41:12.888Z,100192.94
2023-09-24T12:43:57.147Z,100217.16
2023-09-24T12:46:42.649Z,100213.50
2023-09-24T12:49:26.713Z,100207.25
2023-09-24T12:52:11.508Z,100213.31
2023-09-24T12:54:55.455Z,100214.25
2023-09-24T12:57:40.594Z,100216.44
2023-09-24T13:00:24.830Z,100219.97
2023-09-24T13:03:11.710Z,100216.66
2023-09-24T13:05:55.768Z,100207.72
2023-09-24T13:08:39.725Z,100208.00
2023-09-24T13:11:23.989Z,100213.78
2023-09-24T13:14:08.672Z,100219.13
2023-09-24T13:16:53.581Z,100219.75
2023-09-24T13:19:38.914Z,100216.31
2023-09-24T13:22:22.798Z,100211.19
2023-09-24T13:25:07.746Z,100203.97
2023-09-24T13:27:52.060Z,100185.34
2023-09-24T13:30:36.409Z,100193.31
2023-09-24T13:33:20.424Z,100205.09
2023-09-24T13:36:06.628Z,100192.97
2023-09-24T13:38:51.182Z,100205.69
2023-09-24T13:41:35.507Z,100211.06
2023-09-24T13:44:19.653Z,100209.59
2023-09-24T13:47:03.825Z,100209.69
2023-09-24T13:49:47.941Z,100204.44
2023-09-24T13:52:33.252Z,100198.97
2023-09-24T13:55:17.401Z,100213.22
2023-09-24T13:58:01.345Z,100211.94
2023-09-24T14:00:46.604Z,100206.78
2023-09-24T14:03:30.686Z,100209.03
2023-09-24T14:06:14.965Z,100211.72
2023-09-24T14:09:17.609Z,100212.47
2023-09-24T14:12:23.325Z,100214.78
2023-09-24T14:15:09.014Z,100217.75
2023-09-24T14:18:07.156Z,100220.41
2023-09-24T14:20:56.783Z,100219.75
2023-09-24T14:23:41.391Z,100221.66
2023-09-24T14:26:27.116Z,100201.75
2023-09-24T14:29:11.125Z,100215.38
2023-09-24T14:31:55.115Z,100227.47
2023-09-24T14:34:38.988Z,100221.78
2023-09-24T14:37:26.353Z,100183.84
2023-09-24T14:40:11.912Z,100226.28
2023-09-24T14:42:57.933Z,100222.75
2023-09-24T14:45:41.818Z,100223.06
2023-09-24T14:48:26.205Z,100215.59
2023-09-24T14:51:10.327Z,100215.75
2023-09-24T14:53:59.895Z,100230.09
2023-09-24T14:56:44.192Z,100240.31
2023-09-24T14:59:29.645Z,100241.78
2023-09-24T15:02:14.442Z,100242.19
2023-09-24T15:04:58.510Z,100217.50
2023-09-24T15:07:42.430Z,100251.22
2023-09-24T15:10:26.280Z,100252.03
2023-09-24T15:13:10.434Z,100252.66
2023-09-24T15:15:55.799Z,100263.22
2023-09-24T15:18:39.832Z,100257.97
2023-09-24T15:21:24.009Z,100259.66
2023-09-24T15:24:12.779Z,100256.09
2023-09-24T15:26:56.803Z,100259.47
2023-09-24T15:29:40.725Z,100272.59
2023-09-24T15:32:26.021Z,100226.16
2023-09-24T15:35:11.086Z,100260.84
2023-09-24T15:37:55.180Z,100236.34
2023-09-24T15:40:40.176Z,100275.03
2023-09-24T15:43:24.191Z,100253.47
2023-09-24T15:46:15.230Z,100250.81
2023-09-24T15:49:00.779Z,100257.78
2023-09-24T15:51:45.050Z,100241.94
2023-09-24T15:54:29.732Z,100271.81
2023-09-24T15:57:13.825Z,100273.84
2023-09-24T15:59:58.167Z,100252.06
2023-09-24T16:02:43.321Z,100272.22
2023-09-24T16:05:28.728Z,100273.00
2023-09-24T16:08:12.803Z,100277.97
2023-09-24T16:10:56.764Z,100275.56
2023-09-24T16:13:41.429Z,100251.03
2023-09-24T16:16:27.229Z,100262.91
2023-09-24T16:19:11.470Z,100283.69
2023-09-24T16:21:56.847Z,100290.91
2023-09-24T16:24:40.757Z,100281.03
2023-09-24T16:27:24.692Z,100281.53
2023-09-24T16:30:10.024Z,100257.38
2023-09-24T16:32:54.252Z,100294.88
2023-09-24T16:35:41.589Z,100282.81
2023-09-24T16:38:27.030Z,100297.00
2023-09-24T16:41:13.088Z,100299.81
2023-09-24T16:43:58.129Z,100303.25
2023-09-24T16:46:42.170Z,100307.91
2023-09-24T16:49:26.095Z,100310.53
2023-09-24T16:52:10.113Z,100306.38
2023-09-24T16:54:55.368Z,100320.53
2023-09-24T16:57:39.723Z,100317.06
2023-09-24T17:00:24.473Z,100319.97
2023-09-24T17:03:09.150Z,100278.66
2023-09-24T17:05:53.312Z,100294.97
2023-09-24T17:08:37.347Z,100314.09
2023-09-24T17:11:22.630Z,100304.41
2023-09-24T17:14:07.839Z,100304.41
2023-09-24T17:16:54.340Z,100312.25
2023-09-24T17:19:39.065Z,100309.50
2023-09-24T17:22:23.632Z,100312.78
2023-09-24T17:25:08.655Z,100314.91
2023-09-24T17:27:54.209Z,100316.28
2023-09-24T17:30:40.673Z,100305.81
2023-09-24T17:33:24.765Z,100309.13
2023-09-24T17:36:11.087Z,100287.78
2023-09-24T17:38:55.201Z,100304.81
2023-09-24T17:41:39.310Z,100306.53
2023-09-24T17:44:24.831Z,100308.31
2023-09-24T17:47:08.849Z,100313.81
2023-09-24T17:49:52.811Z,100281.59
2023-09-24T17:52:36.947Z,100279.88
2023-09-24T17:55:21.118Z,100317.00
2023-09-24T17:58:06.201Z,100312.97
2023-09-24T18:00:51.719Z,100305.72
2023-09-24T18:03:36.442Z,100309.41
2023-09-24T18:06:20.886Z,100311.25
2023-09-24T18:09:06.293Z,100300.69
2023-09-24T18:11:50.499Z,100316.25
2023-09-24T18:14:34.948Z,100301.84
2023-09-24T18:17:20.735Z,100319.22
2023-09-24T18:20:05.465Z,100284.88
2023-09-24T18:22:49.609Z,100306.31
2023-09-24T18:25:34.010Z,100301.84
2023-09-24T18:28:18.840Z,100272.72
2023-09-24T18:31:03.342Z,100302.09
2023-09-24T18:33:49.311Z,100307.06
2023-09-24T18:36:34.102Z,100306.69
2023-09-24T18:39:19.550Z,100322.88
2023-09-24T18:42:04.053Z,100331.16
2023-09-24T18:44:48.810Z,100334.00
2023-09-24T18:47:37.895Z,100329.41
2023-09-24T18:50:23.308Z,100340.16
2023-09-24T18:53:10.593Z,100319.91
2023-09-24T18:56:01.890Z,100311.00
2023-09-24T18:58:46.912Z,100314.81
2023-09-24T19:01:31.496Z,100341.38
2023-09-24T19:04:16.356Z,100337.88
2023-09-24T19:07:02.236Z,100320.31
2023-09-24T19:09:47.417Z,100308.84
2023-09-24T19:12:31.721Z,100311.09
2023-09-24T19:15:18.413Z,100344.66
2023-09-24T19:18:03.175Z,100338.72
2023-09-24T19:20:50.387Z,100342.19
2023-09-24T19:23:36.020Z,100345.66
2023-09-24T19:26:20.278Z,100345.16
2023-09-24T19:29:04.465Z,100325.06
2023-09-24T19:31:48.527Z,100335.53
2023-09-24T19:34:32.549Z,100343.75
2023-09-24T19:37:16.804Z,100351.22
2023-09-24T19:40:02.088Z,100327.09
2023-09-24T19:42:47.744Z,100315.31
2023-09-24T19:45:31.991Z,100352.97
2023-09-24T19:48:16.197Z,100339.09
2023-09-24T19:51:00.537Z,100349.41
2023-09-24T19:53:44.886Z,100351.31
2023-09-24T19:56:30.390Z,100355.59
2023-09-24T19:59:14.332Z,100317.75
2023-09-24T20:01:58.537Z,100355.63
2023-09-24T20:04:42.797Z,100346.88
2023-09-24T20:07:26.830Z,100355.34
2023-09-24T20:10:15.357Z,100350.53
2023-09-24T20:13:00.843Z,100356.91
2023-09-24T20:15:44.964Z,100356.69
2023-09-24T20:18:31.364Z,100359.53
2023-09-24T20:21:15.469Z,100350.28
2023-09-24T20:24:00.010Z,100352.38
2023-09-24T20:26:45.730Z,100353.97
2023-09-24T20:29:31.080Z,100344.91
2023-09-24T20:32:15.097Z,100348.03
2023-09-24T20:34:59.160Z,100346.06
2023-09-24T20:37:43.117Z,100337.34
2023-09-24T20:40:27.163Z,100327.19
2023-09-24T20:43:11.712Z,100346.09
2023-09-24T20:45:59.963Z,100346.84
2023-09-24T20:48:43.947Z,100347.56
2023-09-24T20:51:27.813Z,100350.25
2023-09-24T20:54:11.928Z,100323.94
2023-09-24T20:56:56.484Z,100349.81
2023-09-24T20:59:45.604Z,100346.44
2023-09-24T21:02:30.990Z,100341.94
2023-09-24T21:05:15.181Z,100349.41
2023-09-24T21:07:59.073Z,100330.19
2023-09-24T21:10:43.122Z,100307.75
2023-09-24T21:13:27.212Z,100350.09
2023-09-24T21:16:11.178Z,100335.97
2023-09-24T21:18:57.227Z,100329.47
2023-09-24T21:21:41.185Z,100348.81
2023-09-24T21:24:25.171Z,100351.78
2023-09-24T21:27:09.157Z,100343.59
2023-09-24T21:29:55.178Z,100349.25
2023-09-24T21:32:39.189Z,100341.47
2023-09-24T21:35:24.817Z,100327.22
2023-09-24T21:38:08.747Z,100345.56
2023-09-24T21:40:52.999Z,100363.94
2023-09-24T21:43:37.019Z,100347.00
2023-09-24T21:46:20.917Z,100356.00
2023-09-24T21:49:04.982Z,100363.66
2023-09-24T21:51:50.317Z,100364.34
2023-09-24T21:54:35.162Z,100354.91
2023-09-24T21:57:19.370Z,100360.28
2023-09-24T22:00:11.860Z,100357.44
2023-09-24T22:02:55.883Z,100328.06
2023-09-24T22:05:43.808Z,100355.03
2023-09-24T22:08:29.265Z,100346.94
2023-09-24T22:11:13.244Z,100328.56
2023-09-24T22:13:57.148Z,100343.78
2023-09-24T22:16:41.733Z,100333.75
2023-09-24T22:19:25.795Z,100338.66
2023-09-24T22:22:09.737Z,100345.19
2023-09-24T22:24:55.072Z,100350.84
2023-09-24T22:27:39.253Z,100360.03
2023-09-24T22:30:23.520Z,100342.38
2023-09-24T22:33:07.658Z,100347.59
2023-09-24T22:35:51.608Z,100343.50
2023-09-24T22:38:35.665Z,100329.53
2023-09-24T22:41:20.983Z,100341.53
2023-09-24T22:44:05.420Z,100340.34
2023-09-24T22:46:49.387Z,100321.22
2023-09-24T22:49:33.297Z,100335.50
2023-09-24T22:52:17.824Z,100338.41
2023-09-24T22:55:02.496Z,100349.44
2023-09-24T22:57:49.294Z,100315.19
2023-09-24T23:00:33.524Z,100351.13
2023-09-24T23:03:17.793Z,100336.97
2023-09-24T23:06:02.177Z,100351.13
2023-09-24T23:08:46.465Z,100278.25
2023-09-24T23:11:30.659Z,100330.97
2023-09-24T23:14:16.358Z,100323.22
2023-09-24T23:17:00.791Z,100310.34
2023-09-24T23:19:44.943Z,100312.41
2023-09-24T23:22:30.311Z,100338.75
2023-09-24T23:25:14.509Z,100345.66
2023-09-24T23:27:59.025Z,100309.28
2023-09-24T23:30:46.891Z,100299.31
2023-09-24T23:33:31.389Z,100299.81
2023-09-24T23:36:16.135Z,100299.31
2023-09-24T23:39:00.479Z,100308.03
2023-09-24T23:41:45.256Z,100306.03
2023-09-24T23:44:29.754Z,100297.88
2023-09-24T23:47:15.394Z,100297.88
2023-09-24T23:49:59.605Z,100325.09
2023-09-24T23:52:44.134Z,100302.41
2023-09-24T23:55:28.278Z,100317.66
2023-09-24T23:58:12.504Z,100286.88
